Polk City, IA

5:10 AM CDT on May 23, 2017 (GMT -0500)
Merwood Knolls | | Change Station
Active Advisory: Flood Warning

Elev 948 ft 41.72 °N, 93.72 °W | Updated 15 seconds ago

Overcast
Overcast
49.5 °F
Feels Like 49 °F
N
3.4
Wind Variable Wind from WNW
Gusts 4.9 mph

Today
High -- | Low -- °F
--% Chance of Precip.
Yesterday
High -- | Low -- °F
Precip. -- in
Pressure 29.84 in
Visibility 10.0 miles
Clouds Overcast 1800 ft
Windchill 49 °F
Dew Point 49 °F
Humidity 99%
Rainfall 0.00 in
Snow Depth Not available.
5:47 AM 8:35 PM
Waning Crescent, 9% visible
METAR KIKV 230955Z AUTO 32008KT 10SM OVC018 11/10 A2984 RMK AO2
Pressure 29.84 in
Visibility 10.0 miles
Clouds Overcast 1800 ft
Windchill 49 °F
Dew Point 49 °F
Humidity 99%
Rainfall 0.00 in
Snow Depth Not available.
5:47 AM 8:35 PM
Waning Crescent, 9% visible
METAR KIKV 230955Z AUTO 32008KT 10SM OVC018 11/10 A2984 RMK AO2

Get Your Daily Forecast Email!

Thanks for signing up!

Be on the lookout for a verification email in your inbox.

You'll start receiving severe weather alerts in your inbox..

×

10-Day Weather Forecast

Almanac

Astronomy

May. 23, 2017 Rise Set
Actual Time
Civil Twilight
Nautical Twilight
Astronomical Twilight
Moon
Length of Visible Light
Length of Day
Tomorrow will be .
, % of the Moon is Illuminated

Today's Extremes

State Highs State Lows

Community

WunderPhotos

Category 6

Welcome to Category 6. This is the collective home for Weather Underground's featured writeups by Dr. Jeff Masters (right), Bob Henson (left), Chris Burt, and other regular contributors.

Nearby

Air Quality

  Air Quality AQ Index Pollutant
Not available.

Snow Depth

Station Depth Elevation

Earthquake Activity

City Distance Mag. Time & Date
Minimum magnitude displayed is 2.5.

Coastal Water Temperatures

Place Temperature

Stations

Nearby Weather Stations

Station Location Temp. Windchill Dew Point Humidity Wind Precip. Elev Updated Type
                   

Watches & Warnings

Flood Warning
Issued: 3:35 AM CDT May. 23, 2017 – National Weather Service

... Flood Warning remains in effect until Wednesday evening...

The Flood Warning continues for
the Des Moines River at Des Moines se 6th St... or from below the
center street dam... to Runnells.
* Until Wednesday evening.
* At 3:00 am Tuesday the stage was 24.0 feet.
* Flood stage is 24.0 feet.
* Minor flooding is forecast.
* Forecast... hover around flood stage today.
* Impact... at 24.0 feet... the bike trail is closed east of Water
Street. Portions of other bike trails are also affected.


Lat... Lon 4159 9356 4152 9333 4145 9333 4154 9356
      4159 9366 4159 9356